createdAt,value
2022-08-09T00:00:00.784Z,51.00
2022-08-09T00:02:34.751Z,51.96
2022-08-09T00:06:19.738Z,51.21
2022-08-09T00:07:54.312Z,51.36
2022-08-09T00:10:24.386Z,51.34
2022-08-09T00:12:53.372Z,50.72
2022-08-09T00:15:35.226Z,50.86
2022-08-09T00:18:14.714Z,50.51
2022-08-09T00:20:50.245Z,49.97
2022-08-09T00:23:55.082Z,49.72
2022-08-09T00:26:07.373Z,49.83
2022-08-09T00:28:36.861Z,49.72
2022-08-09T00:31:09.188Z,49.64
2022-08-09T00:33:57.833Z,49.79
2022-08-09T00:36:29.822Z,49.41
2022-08-09T00:38:59.647Z,49.57
2022-08-09T00:44:16.064Z,49.88
2022-08-09T00:44:26.661Z,50.27
2022-08-09T00:47:01.762Z,50.22
2022-08-09T00:49:36.957Z,50.51
2022-08-09T00:52:15.905Z,50.18
2022-08-09T00:54:46.268Z,50.20
2022-08-09T00:57:14.374Z,50.59
2022-08-09T01:00:02.770Z,51.01
2022-08-09T01:02:32.397Z,51.92
2022-08-09T01:05:14.117Z,51.61
2022-08-09T01:08:00.112Z,51.25
2022-08-09T01:10:35.799Z,51.23
2022-08-09T01:13:09.924Z,51.48
2022-08-09T01:15:52.452Z,51.28
2022-08-09T01:18:30.320Z,51.67
2022-08-09T01:21:18.444Z,51.30
2022-08-09T01:24:03.530Z,52.64
2022-08-09T01:27:01.230Z,53.07
2022-08-09T01:29:48.489Z,52.42
2022-08-09T01:32:32.043Z,53.21
2022-08-09T01:35:18.007Z,54.13
2022-08-09T01:38:08.265Z,55.23
2022-08-09T01:40:43.653Z,55.94
2022-08-09T01:43:13.524Z,55.30
2022-08-09T01:45:47.690Z,55.92
2022-08-09T01:48:18.458Z,56.51
2022-08-09T01:50:55.213Z,56.60
2022-08-09T01:53:29.095Z,57.20
2022-08-09T01:56:04.458Z,57.37
2022-08-09T01:58:34.831Z,57.66
2022-08-09T02:01:04.910Z,57.73
2022-08-09T02:03:38.316Z,57.99
2022-08-09T02:06:09.396Z,57.79
2022-08-09T02:08:59.072Z,57.07
2022-08-09T02:11:42.599Z,56.54
2022-08-09T02:14:25.081Z,56.71
2022-08-09T02:17:14.680Z,56.58
2022-08-09T02:19:45.018Z,56.25
2022-08-09T02:22:27.267Z,56.11
2022-08-09T02:25:02.611Z,56.53
2022-08-09T02:27:57.734Z,56.48
2022-08-09T02:30:23.081Z,55.98
2022-08-09T02:32:56.815Z,56.02
2022-08-09T02:36:01.441Z,55.57
2022-08-09T02:38:28.880Z,54.81
2022-08-09T02:41:03.208Z,54.42
2022-08-09T02:43:42.610Z,54.70
2022-08-09T02:46:27.590Z,54.33
2022-08-09T02:49:00.086Z,53.88
2022-08-09T02:51:36.934Z,54.19
2022-08-09T02:54:10.039Z,53.45
2022-08-09T02:56:41.487Z,53.80
2022-08-09T02:59:25.896Z,54.05
2022-08-09T03:02:06.056Z,53.96
2022-08-09T03:04:37.511Z,53.73
2022-08-09T03:07:12.227Z,52.96
2022-08-09T03:09:43.830Z,53.46
2022-08-09T03:12:24.606Z,54.01
2022-08-09T03:14:54.911Z,54.90
2022-08-09T03:17:26.535Z,55.44
2022-08-09T03:20:03.426Z,55.05
2022-08-09T03:22:41.819Z,54.99
2022-08-09T03:25:25.824Z,55.34
2022-08-09T03:28:03.903Z,55.69
2022-08-09T03:30:34.283Z,54.86
2022-08-09T03:33:16.936Z,54.23
2022-08-09T03:36:13.172Z,53.68
2022-08-09T03:38:42.012Z,52.76
2022-08-09T03:41:14.810Z,52.75
2022-08-09T03:44:03.553Z,52.80
2022-08-09T03:46:31.992Z,53.01
2022-08-09T03:49:08.668Z,52.32
2022-08-09T03:51:56.577Z,52.49
2022-08-09T03:54:31.511Z,52.72
2022-08-09T03:57:04.455Z,52.26
2022-08-09T03:59:53.715Z,51.67
2022-08-09T04:02:27.187Z,51.17
2022-08-09T04:04:58.684Z,51.58
2022-08-09T04:07:47.426Z,51.62
2022-08-09T04:10:18.239Z,51.30
2022-08-09T04:12:51.130Z,51.39
2022-08-09T04:15:38.835Z,51.44
2022-08-09T04:18:09.094Z,51.59
2022-08-09T04:20:46.666Z,51.57
2022-08-09T04:23:17.245Z,51.93
2022-08-09T04:25:51.866Z,51.53
2022-08-09T04:28:33.467Z,51.78
2022-08-09T04:31:07.951Z,51.70
2022-08-09T04:33:51.870Z,51.70
2022-08-09T04:36:24.425Z,51.49
2022-08-09T04:38:52.821Z,51.98
2022-08-09T04:41:23.877Z,51.33
2022-08-09T04:44:07.368Z,51.37
2022-08-09T04:46:59.454Z,51.23
2022-08-09T04:49:53.241Z,51.40
2022-08-09T04:52:26.508Z,50.80
2022-08-09T04:54:55.540Z,50.67
2022-08-09T04:57:24.102Z,50.39
2022-08-09T04:59:54.057Z,50.19
2022-08-09T05:02:22.321Z,50.93
2022-08-09T05:04:55.686Z,50.86
2022-08-09T05:07:29.318Z,51.10
2022-08-09T05:10:01.769Z,51.23
2022-08-09T05:12:31.171Z,51.39
2022-08-09T05:15:03.493Z,51.64
2022-08-09T05:18:37.771Z,51.74
2022-08-09T05:20:29.920Z,51.99
2022-08-09T05:23:55.732Z,51.96
2022-08-09T05:25:50.628Z,51.02
2022-08-09T05:28:19.875Z,50.56
2022-08-09T05:30:48.767Z,49.73
2022-08-09T05:33:19.833Z,50.18
2022-08-09T05:35:57.215Z,49.70
2022-08-09T05:38:28.034Z,48.54
2022-08-09T05:40:56.117Z,48.95
2022-08-09T05:43:24.258Z,49.12
2022-08-09T05:45:57.758Z,48.26
2022-08-09T05:48:27.842Z,48.47
2022-08-09T05:51:43.124Z,47.88
2022-08-09T05:53:56.988Z,48.48
2022-08-09T05:56:26.936Z,46.95
2022-08-09T05:58:58.455Z,46.81
2022-08-09T06:01:33.469Z,46.16
2022-08-09T06:04:05.618Z,44.73
2022-08-09T06:06:34.297Z,44.95
2022-08-09T06:09:09.900Z,44.81
2022-08-09T06:11:51.919Z,44.94
2022-08-09T06:14:24.991Z,44.78
2022-08-09T06:16:52.942Z,43.85
2022-08-09T06:19:20.981Z,44.08
2022-08-09T06:21:51.374Z,43.97
2022-08-09T06:24:28.041Z,43.11
2022-08-09T06:26:56.899Z,42.62
2022-08-09T06:29:27.077Z,42.47
2022-08-09T06:32:09.249Z,42.16
2022-08-09T06:34:44.739Z,41.36
2022-08-09T06:37:14.461Z,40.60
2022-08-09T06:39:57.999Z,40.31
2022-08-09T06:42:30.800Z,40.36
2022-08-09T06:46:03.538Z,40.32
2022-08-09T06:48:00.786Z,39.95
2022-08-09T06:50:31.263Z,39.80
2022-08-09T06:53:00.901Z,39.74
2022-08-09T06:55:33.122Z,39.78
2022-08-09T06:58:04.513Z,39.83
2022-08-09T07:00:54.583Z,40.11
2022-08-09T07:03:26.886Z,39.88
2022-08-09T07:06:03.789Z,40.09
2022-08-09T07:08:32.701Z,39.65
2022-08-09T07:11:04.332Z,39.51
2022-08-09T07:13:45.407Z,39.09
2022-08-09T07:16:40.399Z,38.70
2022-08-09T07:19:15.747Z,39.62
2022-08-09T07:21:57.071Z,38.37
2022-08-09T07:24:32.792Z,37.86
2022-08-09T07:27:33.839Z,37.50
2022-08-09T07:30:01.128Z,37.62
2022-08-09T07:32:32.905Z,38.21
2022-08-09T07:35:10.276Z,37.74
2022-08-09T07:37:42.841Z,37.61
2022-08-09T07:40:17.364Z,37.33
2022-08-09T07:42:54.514Z,36.67
2022-08-09T07:45:37.319Z,36.85
2022-08-09T07:48:07.033Z,36.54
2022-08-09T07:50:36.745Z,35.90
2022-08-09T07:53:05.436Z,36.03
2022-08-09T07:55:41.609Z,35.51
2022-08-09T07:58:26.167Z,35.37
2022-08-09T08:00:58.674Z,34.62
2022-08-09T08:03:36.948Z,34.49
2022-08-09T08:06:05.426Z,35.05
2022-08-09T08:09:02.414Z,34.81
2022-08-09T08:12:24.146Z,31.82
2022-08-09T08:14:12.293Z,31.45
2022-08-09T08:17:00.469Z,31.60
2022-08-09T08:19:31.247Z,32.01
2022-08-09T08:21:59.537Z,30.84
2022-08-09T08:24:34.174Z,31.76
2022-08-09T08:27:16.648Z,31.48
2022-08-09T08:29:50.143Z,30.09
2022-08-09T08:32:28.703Z,30.19
2022-08-09T08:34:58.819Z,29.89
2022-08-09T08:37:41.575Z,30.73
2022-08-09T08:40:15.985Z,29.74
2022-08-09T08:42:47.297Z,29.92
2022-08-09T08:45:18.756Z,30.02
2022-08-09T08:48:06.738Z,30.29
2022-08-09T08:50:38.918Z,30.08
2022-08-09T08:53:11.987Z,29.74
2022-08-09T08:55:44.690Z,29.67
2022-08-09T08:58:12.960Z,28.57
2022-08-09T09:00:45.602Z,28.55
2022-08-09T09:03:33.195Z,28.21
2022-08-09T09:06:09.538Z,27.96
2022-08-09T09:08:42.533Z,27.62
2022-08-09T09:11:17.510Z,26.80
2022-08-09T09:13:55.464Z,26.89
2022-08-09T09:16:30.494Z,26.37
2022-08-09T09:22:07.417Z,27.37
2022-08-09T09:24:38.809Z,26.07
2022-08-09T09:28:02.937Z,26.15
2022-08-09T09:30:14.287Z,25.57
2022-08-09T09:33:02.806Z,24.59
2022-08-09T09:36:00.654Z,25.22
2022-08-09T09:38:44.922Z,24.69
2022-08-09T09:41:15.111Z,25.49
2022-08-09T09:44:11.944Z,26.42
2022-08-09T09:46:51.743Z,25.87
2022-08-09T09:49:50.006Z,24.20
2022-08-09T09:52:16.347Z,25.30
2022-08-09T09:55:16.306Z,22.25
2022-08-09T09:58:12.486Z,24.81
2022-08-09T10:00:50.297Z,22.88
2022-08-09T10:03:43.881Z,21.78
2022-08-09T10:06:14.560Z,21.20
2022-08-09T10:08:54.847Z,20.91
2022-08-09T10:11:59.736Z,20.61
2022-08-09T10:14:27.425Z,19.96
2022-08-09T10:17:11.494Z,20.38
2022-08-09T10:19:47.568Z,20.84
2022-08-09T10:22:33.623Z,20.98
2022-08-09T10:25:03.591Z,21.14
2022-08-09T10:27:56.239Z,20.98
2022-08-09T10:33:29.639Z,21.37
2022-08-09T10:36:04.924Z,22.28
2022-08-09T10:38:56.122Z,22.88
2022-08-09T10:41:22.778Z,23.62
2022-08-09T10:44:01.239Z,23.73
2022-08-09T10:46:57.503Z,23.13
2022-08-09T10:49:50.706Z,23.64
2022-08-09T10:52:45.319Z,24.23
2022-08-09T10:55:25.531Z,24.85
2022-08-09T10:57:59.964Z,24.40
2022-08-09T11:00:41.745Z,24.11
2022-08-09T11:03:49.506Z,22.86
2022-08-09T11:06:22.848Z,23.15
2022-08-09T11:08:53.853Z,22.72
2022-08-09T11:11:25.074Z,22.58
2022-08-09T11:14:32.063Z,23.40
2022-08-09T11:17:00.240Z,23.41
2022-08-09T11:20:10.994Z,23.19
2022-08-09T11:23:09.972Z,22.77
2022-08-09T11:25:48.468Z,23.42
2022-08-09T11:28:55.785Z,24.19
2022-08-09T11:31:52.988Z,23.63
2022-08-09T11:34:36.227Z,23.56
2022-08-09T11:37:07.124Z,24.19
2022-08-09T11:40:01.732Z,24.67
2022-08-09T11:42:42.039Z,25.22
2022-08-09T11:45:22.421Z,25.41
2022-08-09T11:47:51.977Z,25.56
2022-08-09T11:50:56.583Z,25.09
2022-08-09T11:53:58.874Z,25.12
2022-08-09T11:56:34.365Z,25.84
2022-08-09T11:59:12.222Z,25.23
2022-08-09T12:02:17.473Z,25.78
2022-08-09T12:04:38.114Z,25.54
2022-08-09T12:07:08.512Z,25.75
2022-08-09T12:09:37.203Z,25.61
2022-08-09T12:12:12.109Z,24.96
2022-08-09T12:15:08.046Z,25.03
2022-08-09T12:17:34.384Z,25.27
2022-08-09T12:20:16.482Z,24.78
2022-08-09T12:22:53.128Z,24.48
2022-08-09T12:25:35.733Z,25.14
2022-08-09T12:28:59.287Z,25.41
2022-08-09T12:31:02.204Z,25.62
2022-08-09T12:33:51.011Z,25.58
2022-08-09T12:36:31.570Z,24.35
2022-08-09T12:39:01.755Z,24.04
2022-08-09T12:41:39.581Z,23.51
2022-08-09T12:44:10.134Z,24.45
2022-08-09T12:46:43.097Z,23.64
2022-08-09T12:49:13.436Z,23.07
2022-08-09T12:52:02.655Z,23.25
2022-08-09T12:54:46.613Z,23.18
2022-08-09T12:57:39.987Z,22.05
2022-08-09T13:00:25.081Z,22.58
2022-08-09T13:02:57.281Z,21.99
2022-08-09T13:05:50.698Z,22.23
2022-08-09T13:08:21.257Z,21.98
2022-08-09T13:11:22.832Z,22.16
2022-08-09T13:14:37.153Z,22.68
2022-08-09T13:16:49.810Z,23.42
2022-08-09T13:20:07.044Z,23.12
2022-08-09T13:22:36.328Z,23.32
2022-08-09T13:25:07.894Z,22.99
2022-08-09T13:27:48.541Z,23.27
2022-08-09T13:30:50.471Z,23.49
2022-08-09T13:33:16.956Z,22.09
2022-08-09T13:36:38.004Z,22.93
2022-08-09T13:38:57.642Z,22.08
2022-08-09T13:41:57.742Z,21.06
2022-08-09T13:44:16.974Z,21.89
2022-08-09T13:47:27.766Z,21.85
2022-08-09T13:49:37.807Z,21.47
2022-08-09T13:52:19.984Z,21.55
2022-08-09T13:55:00.785Z,22.37
2022-08-09T13:57:36.846Z,22.59
2022-08-09T14:00:13.905Z,21.78
2022-08-09T14:03:02.991Z,21.54
2022-08-09T14:05:56.690Z,22.43
2022-08-09T14:08:23.312Z,23.14
2022-08-09T14:10:53.482Z,24.43
2022-08-09T14:14:15.311Z,25.51
2022-08-09T14:16:16.910Z,25.65
2022-08-09T14:18:49.096Z,26.04
2022-08-09T14:21:18.584Z,25.89
2022-08-09T14:23:55.527Z,26.02
2022-08-09T14:26:32.975Z,25.68
2022-08-09T14:29:03.639Z,26.30
2022-08-09T14:31:52.118Z,26.72
2022-08-09T14:34:31.035Z,26.89
2022-08-09T14:37:02.270Z,26.49
2022-08-09T14:39:45.165Z,27.00
2022-08-09T14:42:30.388Z,27.03
2022-08-09T14:46:55.820Z,26.92
2022-08-09T14:47:58.163Z,27.07
2022-08-09T14:50:31.661Z,27.42
2022-08-09T14:53:01.142Z,27.26
2022-08-09T14:55:32.244Z,27.03
2022-08-09T14:58:03.745Z,27.16
2022-08-09T15:00:36.190Z,27.37
2022-08-09T15:03:07.043Z,27.31
2022-08-09T15:05:36.718Z,27.27
2022-08-09T15:08:05.239Z,27.77
2022-08-09T15:10:35.016Z,27.35
2022-08-09T15:13:05.745Z,27.82
2022-08-09T15:15:39.258Z,27.70
2022-08-09T15:18:14.310Z,27.79
2022-08-09T15:21:56.064Z,28.02
2022-08-09T15:24:05.922Z,28.42
2022-08-09T15:26:31.056Z,29.04
2022-08-09T15:29:04.202Z,28.44
2022-08-09T15:31:41.245Z,29.74
2022-08-09T15:34:32.096Z,29.45
2022-08-09T15:37:04.241Z,29.04
2022-08-09T15:39:44.014Z,27.90
2022-08-09T15:42:30.582Z,28.87
2022-08-09T15:45:03.725Z,28.62
2022-08-09T15:47:51.558Z,28.62
2022-08-09T15:50:20.437Z,28.44
2022-08-09T15:52:54.875Z,28.89
2022-08-09T15:56:11.101Z,29.47
2022-08-09T15:58:27.269Z,29.04
2022-08-09T16:00:57.756Z,28.74
2022-08-09T16:03:29.746Z,29.84
2022-08-09T16:06:07.725Z,30.25
2022-08-09T16:08:56.147Z,30.98
2022-08-09T16:11:24.272Z,29.71
2022-08-09T16:14:02.653Z,29.41
2022-08-09T16:16:37.375Z,29.04
2022-08-09T16:19:07.559Z,28.25
2022-08-09T16:21:36.761Z,28.14
2022-08-09T16:24:05.347Z,27.84
2022-08-09T16:26:48.921Z,27.87
2022-08-09T16:29:20.157Z,28.23
2022-08-09T16:32:19.941Z,28.62
2022-08-09T16:34:55.383Z,28.58
2022-08-09T16:37:53.142Z,28.80
2022-08-09T16:40:20.378Z,28.73
2022-08-09T16:42:49.071Z,29.00
2022-08-09T16:45:19.827Z,29.08
2022-08-09T16:48:40.587Z,28.79
2022-08-09T16:50:39.059Z,28.61
2022-08-09T16:53:08.754Z,28.62
2022-08-09T16:55:57.620Z,28.71
2022-08-09T16:58:25.614Z,29.11
2022-08-09T17:00:54.935Z,29.26
2022-08-09T17:03:28.102Z,29.53
2022-08-09T17:06:08.640Z,30.07
2022-08-09T17:09:03.029Z,30.33
2022-08-09T17:11:41.508Z,30.76
2022-08-09T17:14:25.838Z,30.75
2022-08-09T17:16:59.887Z,31.10
2022-08-09T17:19:47.291Z,31.18
2022-08-09T17:22:28.555Z,30.86
2022-08-09T17:25:03.454Z,30.57
2022-08-09T17:27:33.213Z,30.65
2022-08-09T17:30:06.579Z,30.03
2022-08-09T17:32:37.727Z,30.21
2022-08-09T17:35:12.333Z,30.28
2022-08-09T17:38:11.798Z,29.96
2022-08-09T17:40:31.944Z,30.09
2022-08-09T17:43:10.921Z,30.01
2022-08-09T17:46:02.989Z,30.59
2022-08-09T17:48:33.211Z,30.39
2022-08-09T17:51:10.270Z,30.28
2022-08-09T17:53:47.989Z,30.40
2022-08-09T17:56:21.918Z,30.50
2022-08-09T17:58:56.402Z,30.46
2022-08-09T18:01:24.464Z,30.57
2022-08-09T18:03:54.371Z,30.55
2022-08-09T18:06:31.636Z,31.06
2022-08-09T18:09:01.655Z,31.38
2022-08-09T18:12:05.674Z,31.31
2022-08-09T18:14:20.800Z,31.35
2022-08-09T18:16:49.668Z,31.34
2022-08-09T18:20:57.442Z,31.47
2022-08-09T18:22:13.162Z,30.94
2022-08-09T18:24:45.677Z,31.41
2022-08-09T18:27:49.387Z,31.30
2022-08-09T18:30:39.810Z,31.35
2022-08-09T18:32:54.680Z,32.74
2022-08-09T18:35:56.294Z,31.98
2022-08-09T18:38:13.410Z,32.23
2022-08-09T18:40:44.282Z,32.17
2022-08-09T18:43:12.639Z,32.21
2022-08-09T18:46:51.157Z,32.20
2022-08-09T18:48:32.580Z,32.46
2022-08-09T18:51:01.424Z,32.01
2022-08-09T18:53:59.812Z,32.24
2022-08-09T18:56:27.216Z,31.81
2022-08-09T18:58:56.950Z,31.64
2022-08-09T19:01:25.845Z,32.83
2022-08-09T19:04:06.342Z,32.96
2022-08-09T19:06:38.703Z,32.49
2022-08-09T19:09:13.574Z,32.68
2022-08-09T19:11:48.767Z,32.90
2022-08-09T19:14:24.485Z,32.76
2022-08-09T19:16:57.583Z,32.91
2022-08-09T19:19:28.230Z,32.81
2022-08-09T19:22:09.375Z,33.35
2022-08-09T19:25:09.226Z,33.76
2022-08-09T19:27:28.406Z,33.23
2022-08-09T19:30:22.608Z,33.31
2022-08-09T19:32:45.614Z,33.71
2022-08-09T19:35:17.340Z,34.60
2022-08-09T19:37:56.090Z,34.36
2022-08-09T19:40:34.236Z,34.38
2022-08-09T19:43:05.512Z,34.68
2022-08-09T19:45:40.298Z,34.63
2022-08-09T19:48:11.789Z,33.93
2022-08-09T19:50:50.350Z,34.12
2022-08-09T19:53:20.896Z,34.58
2022-08-09T19:56:02.062Z,35.03
2022-08-09T19:58:34.044Z,34.77
2022-08-09T20:01:02.165Z,36.59
2022-08-09T20:04:11.319Z,35.64
2022-08-09T20:06:29.919Z,35.61
2022-08-09T20:08:59.835Z,35.08
2022-08-09T20:11:33.945Z,34.99
2022-08-09T20:14:15.607Z,34.90
2022-08-09T20:16:53.942Z,34.49
2022-08-09T20:19:48.750Z,34.46
2022-08-09T20:22:14.087Z,33.95
2022-08-09T20:24:53.260Z,34.48
2022-08-09T20:27:24.040Z,34.93
2022-08-09T20:29:52.117Z,34.30
2022-08-09T20:32:33.445Z,34.85
2022-08-09T20:35:02.558Z,34.95
2022-08-09T20:37:37.941Z,35.10
2022-08-09T20:40:26.931Z,34.58
2022-08-09T20:42:59.816Z,35.75
2022-08-09T20:45:57.212Z,35.56
2022-08-09T20:48:28.893Z,36.27
2022-08-09T20:50:58.802Z,35.67
2022-08-09T20:53:36.632Z,35.65
2022-08-09T20:56:09.003Z,35.86
2022-08-09T20:58:38.494Z,36.51
2022-08-09T21:01:33.081Z,35.39
2022-08-09T21:04:08.311Z,35.44
2022-08-09T21:06:48.005Z,35.30
2022-08-09T21:09:24.821Z,35.96
2022-08-09T21:14:40.152Z,35.75
2022-08-09T21:18:23.980Z,36.03
2022-08-09T21:20:17.720Z,36.29
2022-08-09T21:22:46.888Z,36.63
2022-08-09T21:25:55.962Z,36.14
2022-08-09T21:28:34.247Z,36.57
2022-08-09T21:31:16.296Z,36.84
2022-08-09T21:33:51.695Z,36.93
2022-08-09T21:36:23.091Z,36.53
2022-08-09T21:38:58.087Z,37.21
2022-08-09T21:42:05.884Z,37.31
2022-08-09T21:44:34.006Z,37.60
2022-08-09T21:47:05.554Z,37.53
2022-08-09T21:49:39.500Z,37.11
2022-08-09T21:52:15.100Z,36.77
2022-08-09T21:54:53.658Z,36.51
2022-08-09T21:57:39.286Z,37.11
2022-08-09T22:00:25.822Z,36.51
2022-08-09T22:02:59.344Z,36.62
2022-08-09T22:05:35.431Z,36.68
2022-08-09T22:08:05.644Z,36.80
2022-08-09T22:10:34.064Z,36.40
2022-08-09T22:13:07.523Z,36.56
2022-08-09T22:15:40.054Z,36.96
2022-08-09T22:18:12.036Z,37.22
2022-08-09T22:20:41.418Z,37.08
2022-08-09T22:23:10.531Z,37.38
2022-08-09T22:26:08.562Z,37.14
2022-08-09T22:28:33.217Z,37.67
2022-08-09T22:31:02.718Z,38.27
2022-08-09T22:33:37.621Z,37.66
2022-08-09T22:36:19.118Z,37.60
2022-08-09T22:38:47.899Z,37.80
2022-08-09T22:41:16.310Z,38.12
2022-08-09T22:44:02.505Z,38.13
2022-08-09T22:48:15.227Z,38.65
2022-08-09T22:49:23.522Z,38.50
2022-08-09T22:51:57.036Z,38.46
2022-08-09T22:54:27.152Z,38.73
2022-08-09T22:56:56.645Z,38.17
2022-08-09T22:59:55.675Z,38.57
2022-08-09T23:02:15.843Z,38.80
2022-08-09T23:04:53.817Z,38.84
2022-08-09T23:08:22.916Z,38.78
2022-08-09T23:10:29.097Z,39.39
2022-08-09T23:12:57.341Z,39.01
2022-08-09T23:15:25.669Z,39.06
2022-08-09T23:17:53.657Z,39.08
2022-08-09T23:20:23.978Z,38.74
2022-08-09T23:22:51.914Z,38.54
2022-08-09T23:25:19.971Z,38.89
2022-08-09T23:27:59.682Z,38.51
2022-08-09T23:30:35.886Z,38.44
2022-08-09T23:33:04.901Z,38.63
2022-08-09T23:36:06.499Z,38.27
2022-08-09T23:38:22.848Z,38.24
2022-08-09T23:40:52.015Z,38.21
2022-08-09T23:43:20.103Z,38.25
2022-08-09T23:45:48.522Z,38.26
2022-08-09T23:48:17.050Z,38.28
2022-08-09T23:50:46.782Z,37.78
2022-08-09T23:53:14.833Z,37.84
2022-08-09T23:55:49.626Z,37.93
2022-08-09T23:58:25.758Z,37.68
